Time;durP1;ratioP1;P1;durP2;ratioP2;P2;SDS_P1;SDS_P2;PMS_P1;PMS_P2;Temp;Humidity;BMP_temperature;BMP_pressure;BME280_temperature;BME280_humidity;BME280_pressure;Samples;Min_cycle;Max_cycle;Signal;HPM_P1;HPM_P2
2022/05/29 00:00:09;;;;;;;12.07;5.93;;;21.70;99.90;;;;;;5020034;28;20041;-74
2022/05/29 00:02:36;;;;;;;12.02;6.57;;;21.60;99.90;;;;;;5034123;28;20996;-72
2022/05/29 00:05:03;;;;;;;11.77;7.30;;;21.60;99.90;;;;;;5037501;28;20041;-72
2022/05/29 00:07:29;;;;;;;14.45;7.18;;;21.60;99.90;;;;;;5023159;28;20117;-72
2022/05/29 00:09:55;;;;;;;10.93;7.80;;;21.50;99.90;;;;;;5035373;28;20037;-73
2022/05/29 00:12:22;;;;;;;12.55;6.90;;;21.50;99.90;;;;;;5033014;28;20092;-73
2022/05/29 00:14:49;;;;;;;10.00;7.13;;;21.50;99.90;;;;;;5036489;28;20131;-73
2022/05/29 00:17:17;;;;;;;13.95;7.40;;;21.40;99.90;;;;;;5020499;28;20037;-73
2022/05/29 00:19:43;;;;;;;11.00;6.80;;;21.40;99.90;;;;;;5049294;28;20066;-73
2022/05/29 00:22:20;;;;;;;10.95;6.93;;;21.30;99.90;;;;;;5017318;28;20513;-74
2022/05/29 00:24:48;;;;;;;14.27;7.18;;;21.20;99.90;;;;;;5017294;28;20104;-73
2022/05/29 00:27:16;;;;;;;11.90;6.63;;;21.20;99.90;;;;;;5039588;28;20036;-73
2022/05/29 00:29:44;;;;;;;15.63;6.70;;;21.20;99.90;;;;;;5015466;28;20034;-72
2022/05/29 00:32:10;;;;;;;11.27;6.38;;;21.20;99.90;;;;;;5033125;28;20038;-72
2022/05/29 00:34:37;;;;;;;12.85;6.70;;;21.20;99.90;;;;;;5036082;28;20029;-72
2022/05/29 00:37:05;;;;;;;15.05;6.68;;;21.10;99.90;;;;;;5015727;28;20124;-72
2022/05/29 00:39:31;;;;;;;10.85;6.63;;;21.10;99.90;;;;;;5032544;28;20037;-72
2022/05/29 00:41:58;;;;;;;10.65;6.07;;;21.00;99.90;;;;;;5016544;28;20116;-72
2022/05/29 00:44:30;;;;;;;12.52;5.82;;;21.00;99.90;;;;;;5015084;28;20049;-72
2022/05/29 00:47:01;;;;;;;;;;;21.00;99.90;;;;;;5052010;28;20057;-72
2022/05/29 00:49:35;;;;;;;10.20;6.45;;;21.00;99.90;;;;;;5003211;28;19957;-73
2022/05/29 00:52:04;;;;;;;13.50;6.10;;;21.10;99.90;;;;;;5014362;28;20109;-73
2022/05/29 00:54:33;;;;;;;10.10;6.13;;;21.00;99.90;;;;;;5032821;28;20037;-72
2022/05/29 00:57:01;;;;;;;12.07;6.15;;;21.00;99.90;;;;;;5022745;28;20036;-73
2022/05/29 00:59:31;;;;;;;13.45;6.68;;;21.00;99.90;;;;;;5007161;28;20161;-72
2022/05/29 01:02:01;;;;;;;12.07;5.93;;;20.90;99.90;;;;;;5038002;28;20941;-72
2022/05/29 01:04:27;;;;;;;10.52;6.32;;;20.90;99.90;;;;;;5021452;28;20032;-74
2022/05/29 01:06:54;;;;;;;11.18;5.75;;;20.90;99.90;;;;;;5015210;28;20140;-72
2022/05/29 01:09:21;;;;;;;14.02;6.30;;;20.90;99.90;;;;;;5026360;28;20175;-74
2022/05/29 01:12:04;;;;;;;14.15;6.68;;;20.90;99.90;;;;;;5022682;28;21496;-73
2022/05/29 01:14:39;;;;;;;11.05;7.00;;;20.90;99.90;;;;;;5019060;28;20026;-73
2022/05/29 01:17:45;;;;;;;11.32;6.60;;;20.80;99.90;;;;;;5049556;28;20071;-73
2022/05/29 01:20:14;;;;;;;13.25;6.80;;;20.80;99.90;;;;;;5010955;28;20071;-72
2022/05/29 01:22:55;;;;;;;11.93;7.00;;;20.80;99.90;;;;;;5045534;28;20037;-72
2022/05/29 01:25:54;;;;;;;13.85;6.72;;;20.80;99.90;;;;;;5005598;28;20088;-73
2022/05/29 01:28:52;;;;;;;9.10;6.05;;;20.80;99.90;;;;;;5024487;28;20037;-73
2022/05/29 01:31:50;;;;;;;11.30;5.80;;;20.80;99.90;;;;;;5022089;28;20038;-73
2022/05/29 01:34:40;;;;;;;13.45;6.82;;;20.80;99.90;;;;;;5017499;28;20030;-72
2022/05/29 01:37:31;;;;;;;11.30;5.70;;;20.80;99.90;;;;;;5035552;28;20520;-73
2022/05/29 01:40:04;;;;;;;13.00;6.03;;;20.70;99.90;;;;;;5022494;28;20037;-72
2022/05/29 01:42:52;;;;;;;10.07;5.80;;;20.70;99.90;;;;;;5035960;28;20111;-73
2022/05/29 01:45:53;;;;;;;10.70;5.65;;;20.70;99.90;;;;;;5017663;28;20114;-73
2022/05/29 01:48:31;;;;;;;10.50;5.50;;;20.70;99.90;;;;;;5031576;28;20076;-73
2022/05/29 01:51:10;;;;;;;8.63;5.45;;;20.70;99.90;;;;;;5026119;28;20040;-73
2022/05/29 01:53:41;;;;;;;13.07;5.72;;;20.60;99.90;;;;;;5027020;28;20041;-72
2022/05/29 01:56:17;;;;;;;8.85;5.38;;;20.60;99.90;;;;;;5027052;28;20117;-73
2022/05/29 01:58:52;;;;;;;11.73;5.47;;;20.60;99.90;;;;;;5021136;28;20236;-73
2022/05/29 02:01:23;;;;;;;10.75;5.45;;;20.60;99.90;;;;;;5031330;28;20033;-73
2022/05/29 02:03:53;;;;;;;9.15;4.78;;;20.50;99.90;;;;;;5021737;28;20060;-73
2022/05/29 02:07:47;;;;;;;13.93;5.38;;;20.50;99.90;;;;;;5020356;28;20392;-73
2022/05/29 02:09:20;;;;;;;12.52;5.28;;;20.50;99.90;;;;;;5017182;28;20447;-73
2022/05/29 02:11:52;;;;;;;13.02;5.25;;;20.50;99.90;;;;;;5035206;28;20069;-72
2022/05/29 02:14:29;;;;;;;10.40;5.63;;;20.50;99.90;;;;;;5019838;28;20034;-72
2022/05/29 02:17:03;;;;;;;7.88;4.53;;;20.50;99.90;;;;;;5020798;28;20033;-73
2022/05/29 02:19:36;;;;;;;10.13;5.10;;;20.50;99.90;;;;;;5035619;28;20324;-73
2022/05/29 02:22:27;;;;;;;10.93;5.13;;;20.40;99.90;;;;;;5034900;28;20072;-72
2022/05/29 02:25:00;;;;;;;12.27;5.03;;;20.40;99.90;;;;;;5017794;28;20033;-72
2022/05/29 02:27:33;;;;;;;10.18;5.05;;;20.40;99.90;;;;;;5024759;28;20591;-73
2022/05/29 02:30:02;;;;;;;11.93;4.97;;;20.40;99.90;;;;;;5037716;28;20285;-72
2022/05/29 02:32:43;;;;;;;11.40;5.45;;;20.40;99.90;;;;;;5020556;28;20030;-73
2022/05/29 02:35:34;;;;;;;10.68;5.63;;;20.40;99.90;;;;;;5019875;28;20065;-72
2022/05/29 02:38:39;;;;;;;16.23;5.68;;;20.30;99.90;;;;;;5022664;28;20038;-72
2022/05/29 02:41:21;;;;;;;10.65;5.38;;;20.40;99.90;;;;;;5019982;28;20485;-72
2022/05/29 02:44:10;;;;;;;;;;;20.30;99.90;;;;;;5020552;28;20114;-72
2022/05/29 02:46:51;;;;;;;11.40;5.32;;;20.30;99.90;;;;;;5019727;28;19917;-72
2022/05/29 02:49:28;;;;;;;10.07;5.82;;;20.20;99.90;;;;;;5022346;28;20127;-73
2022/05/29 02:52:09;;;;;;;11.75;5.10;;;20.20;99.90;;;;;;5019568;28;20107;-74
2022/05/29 02:54:35;;;;;;;13.63;5.57;;;20.20;99.90;;;;;;5009037;28;20038;-72
2022/05/29 02:57:02;;;;;;;10.80;4.78;;;20.20;99.90;;;;;;5020347;28;20126;-73
2022/05/29 02:59:36;;;;;;;10.25;4.90;;;20.20;99.90;;;;;;5018150;28;20117;-72
2022/05/29 03:02:39;;;;;;;12.20;5.50;;;20.20;99.90;;;;;;5021961;28;20079;-73
2022/05/29 03:05:23;;;;;;;10.80;5.38;;;20.10;99.90;;;;;;4980056;28;20821;-73
2022/05/29 03:08:08;;;;;;;13.55;5.53;;;20.20;99.90;;;;;;4999309;28;20099;-73
2022/05/29 03:10:40;;;;;;;10.60;5.38;;;20.10;99.90;;;;;;5024162;28;20041;-73
2022/05/29 03:13:22;;;;;;;11.10;5.38;;;20.20;99.90;;;;;;5022547;28;20140;-73
2022/05/29 03:15:53;;;;;;;9.23;4.67;;;20.20;99.90;;;;;;5021288;28;20037;-73
2022/05/29 03:18:50;;;;;;;11.83;5.13;;;20.10;99.90;;;;;;5037496;28;20267;-72
2022/05/29 03:21:46;;;;;;;12.90;5.10;;;20.10;99.90;;;;;;5033556;28;20033;-72
2022/05/29 03:24:23;;;;;;;12.55;5.47;;;20.10;99.90;;;;;;5020801;28;20041;-72
2022/05/29 03:27:18;;;;;;;11.98;5.70;;;20.10;99.90;;;;;;5020562;28;20390;-72
2022/05/29 03:30:16;;;;;;;12.02;6.00;;;20.10;99.90;;;;;;5017130;28;20041;-72
2022/05/29 03:32:43;;;;;;;11.98;5.60;;;20.00;99.90;;;;;;5047572;28;20038;-72
2022/05/29 03:35:19;;;;;;;10.15;5.43;;;20.00;99.90;;;;;;5003283;28;20792;-73
2022/05/29 03:37:46;;;;;;;11.35;5.13;;;20.00;99.90;;;;;;5041776;28;20073;-72
2022/05/29 03:40:13;;;;;;;12.55;5.68;;;20.00;99.90;;;;;;5018520;28;20069;-72
2022/05/29 03:42:39;;;;;;;10.50;5.82;;;19.90;99.90;;;;;;5019089;28;20047;-72
2022/05/29 03:45:05;;;;;;;11.85;6.10;;;19.90;99.90;;;;;;5014432;28;20042;-73
2022/05/29 03:47:31;;;;;;;13.65;8.13;;;19.90;99.90;;;;;;5051582;28;20064;-72
2022/05/29 03:49:57;;;;;;;13.68;7.00;;;19.90;99.90;;;;;;5021035;28;20033;-72
2022/05/29 03:52:24;;;;;;;11.93;7.40;;;19.90;99.90;;;;;;5055615;28;20067;-73
2022/05/29 03:54:52;;;;;;;15.02;8.90;;;20.00;99.90;;;;;;5020886;28;20046;-72
2022/05/29 03:57:18;;;;;;;16.42;8.80;;;20.00;99.90;;;;;;5020144;28;20041;-73
2022/05/29 03:59:44;;;;;;;16.35;9.70;;;20.00;99.90;;;;;;5018722;28;20065;-72
2022/05/29 04:02:10;;;;;;;13.98;8.90;;;20.00;99.90;;;;;;5009471;28;20454;-72
2022/05/29 04:04:36;;;;;;;16.83;9.38;;;19.90;99.90;;;;;;5035292;28;20072;-72
2022/05/29 04:07:02;;;;;;;15.57;9.38;;;19.90;99.90;;;;;;5019955;28;20042;-71
2022/05/29 04:12:13;;;;;;;16.10;10.85;;;19.90;99.90;;;;;;5016918;28;20093;-72
2022/05/29 04:14:42;;;;;;;16.27;9.75;;;19.80;99.90;;;;;;5019199;28;20038;-72
2022/05/29 04:17:14;;;;;;;13.50;9.25;;;19.80;99.90;;;;;;5033874;28;20038;-71
2022/05/29 04:19:41;;;;;;;12.43;8.95;;;19.80;99.90;;;;;;5019096;28;20060;-73
2022/05/29 04:22:10;;;;;;;13.32;8.57;;;19.80;99.90;;;;;;5021311;28;20045;-72
2022/05/29 04:24:37;;;;;;;17.77;9.85;;;19.80;99.90;;;;;;5017173;28;20045;-73
2022/05/29 04:27:03;;;;;;;15.00;9.32;;;19.80;99.90;;;;;;5022539;28;20038;-72
2022/05/29 04:29:29;;;;;;;14.40;10.00;;;19.80;99.90;;;;;;5024878;28;20063;-72
2022/05/29 04:34:40;;;;;;;12.90;8.95;;;19.70;99.90;;;;;;5024649;28;20124;-73
2022/05/29 04:37:06;;;;;;;14.85;8.80;;;19.70;99.90;;;;;;5020179;28;20113;-73
2022/05/29 04:39:34;;;;;;;16.00;9.77;;;19.70;99.90;;;;;;5020692;28;20529;-72
2022/05/29 04:42:00;;;;;;;16.98;8.50;;;19.70;99.90;;;;;;5040167;28;20116;-72
2022/05/29 04:44:29;;;;;;;12.13;8.02;;;19.70;99.90;;;;;;5039148;28;20041;-72
2022/05/29 04:46:57;;;;;;;14.75;8.18;;;19.70;99.90;;;;;;5057218;28;20049;-71
2022/05/29 04:49:23;;;;;;;15.35;8.30;;;19.70;99.90;;;;;;5021126;28;20516;-72
2022/05/29 04:51:49;;;;;;;15.20;8.07;;;19.70;99.90;;;;;;5024358;28;20054;-72
2022/05/29 04:54:15;;;;;;;16.60;8.02;;;19.70;99.90;;;;;;5024798;28;20045;-71
2022/05/29 04:56:41;;;;;;;14.30;7.50;;;19.70;99.90;;;;;;5016476;28;20038;-72
2022/05/29 04:59:08;;;;;;;16.83;8.55;;;19.80;99.90;;;;;;5041337;28;20037;-73
2022/05/29 05:01:34;;;;;;;11.52;8.20;;;19.80;99.90;;;;;;5024705;28;20034;-72
2022/05/29 05:04:00;;;;;;;13.95;7.97;;;19.80;99.90;;;;;;5026523;28;20039;-72
2022/05/29 05:06:28;;;;;;;12.93;7.28;;;19.80;99.90;;;;;;5026670;28;20473;-73
2022/05/29 05:08:54;;;;;;;12.60;6.78;;;19.90;99.90;;;;;;5020118;28;20045;-73
2022/05/29 05:11:20;;;;;;;10.25;5.93;;;19.90;99.90;;;;;;5032558;28;20063;-72
2022/05/29 05:13:46;;;;;;;12.82;6.10;;;20.00;99.90;;;;;;5026822;28;20442;-73
2022/05/29 05:16:12;;;;;;;12.32;6.15;;;20.00;99.90;;;;;;5037123;28;20039;-73
2022/05/29 05:18:38;;;;;;;10.77;5.50;;;20.10;99.90;;;;;;5025709;28;20038;-73
2022/05/29 05:21:06;;;;;;;11.85;5.30;;;20.10;99.90;;;;;;5025087;28;20045;-73
2022/05/29 05:23:33;;;;;;;12.45;5.68;;;20.20;99.90;;;;;;5005687;28;20058;-72
2022/05/29 05:25:59;;;;;;;13.10;4.90;;;20.30;99.90;;;;;;5021661;28;20077;-72
2022/05/29 05:28:25;;;;;;;13.02;5.15;;;20.30;99.90;;;;;;5022002;28;20040;-71
2022/05/29 05:30:51;;;;;;;11.75;5.18;;;20.30;99.90;;;;;;5034458;28;20527;-73
2022/05/29 05:33:17;;;;;;;12.73;4.78;;;20.30;99.90;;;;;;5016887;28;20120;-72
2022/05/29 05:35:43;;;;;;;11.32;5.85;;;20.40;99.90;;;;;;5033029;28;20128;-72
2022/05/29 05:38:09;;;;;;;10.43;5.57;;;20.40;99.90;;;;;;5016507;28;20157;-72
2022/05/29 05:40:36;;;;;;;11.43;5.28;;;20.50;99.90;;;;;;5021185;28;20487;-72
2022/05/29 05:43:02;;;;;;;8.38;4.38;;;20.50;99.90;;;;;;5022157;28;20045;-72
2022/05/29 05:45:28;;;;;;;11.50;4.20;;;20.60;99.90;;;;;;5023637;28;20115;-73
2022/05/29 05:47:55;;;;;;;9.68;3.92;;;20.60;99.90;;;;;;5035422;28;20038;-73
2022/05/29 05:50:20;;;;;;;11.27;4.55;;;20.70;99.90;;;;;;5004988;28;20033;-73
2022/05/29 05:52:47;;;;;;;11.00;4.22;;;20.70;99.90;;;;;;5032608;28;20404;-73
2022/05/29 05:55:13;;;;;;;10.90;3.80;;;20.70;99.90;;;;;;5019410;28;20044;-72
2022/05/29 05:57:40;;;;;;;11.32;4.45;;;20.80;99.90;;;;;;5021155;28;20042;-73
2022/05/29 06:00:10;;;;;;;8.82;3.30;;;20.90;99.90;;;;;;5015753;28;20049;-73
2022/05/29 06:02:35;;;;;;;7.75;3.80;;;21.00;99.90;;;;;;5036512;28;20037;-73
2022/05/29 06:05:02;;;;;;;8.98;3.60;;;21.00;99.90;;;;;;5020602;28;20048;-73
2022/05/29 06:07:28;;;;;;;7.63;3.72;;;21.00;99.90;;;;;;5016061;28;20037;-73
2022/05/29 06:09:54;;;;;;;11.68;3.88;;;21.10;99.90;;;;;;5018452;28;20110;-73
2022/05/29 06:12:21;;;;;;;11.77;3.83;;;21.10;99.90;;;;;;5024301;28;20425;-72
2022/05/29 06:14:48;;;;;;;10.02;3.97;;;21.20;99.90;;;;;;5033833;28;20472;-72
2022/05/29 06:17:15;;;;;;;11.32;3.97;;;21.30;99.90;;;;;;5016502;28;20022;-74
2022/05/29 06:19:41;;;;;;;10.68;3.60;;;21.30;99.90;;;;;;5039632;28;20042;-73
2022/05/29 06:22:08;;;;;;;11.27;3.97;;;21.30;99.90;;;;;;5036149;28;20099;-74
2022/05/29 06:24:34;;;;;;;10.38;4.32;;;21.30;99.90;;;;;;5022576;28;20034;-73
2022/05/29 06:27:02;;;;;;;11.40;4.70;;;21.40;99.90;;;;;;5040866;28;20127;-72
2022/05/29 06:29:29;;;;;;;11.18;4.00;;;21.40;99.90;;;;;;5052730;28;20068;-75
2022/05/29 06:32:04;;;;;;;12.65;4.65;;;21.40;99.90;;;;;;5018513;28;20165;-73
2022/05/29 06:34:33;;;;;;;9.27;4.22;;;21.50;99.90;;;;;;5056491;28;20034;-72
2022/05/29 06:37:02;;;;;;;11.38;4.20;;;21.50;99.90;;;;;;5019878;28;20033;-72
2022/05/29 06:39:29;;;;;;;8.48;3.65;;;21.60;99.90;;;;;;5017841;28;20038;-72
2022/05/29 06:41:55;;;;;;;15.23;4.07;;;21.70;99.90;;;;;;5037370;28;20145;-73
2022/05/29 06:44:21;;;;;;;10.52;4.57;;;21.80;99.90;;;;;;5050396;28;20033;-73
2022/05/29 06:46:46;;;;;;;16.85;4.63;;;21.90;99.90;;;;;;5021567;28;20037;-73
2022/05/29 06:49:12;;;;;;;9.80;3.97;;;21.90;99.90;;;;;;5035559;28;20084;-73
2022/05/29 06:51:38;;;;;;;10.30;4.38;;;21.90;99.90;;;;;;5019324;28;20044;-73
2022/05/29 06:54:05;;;;;;;16.23;3.92;;;21.90;99.90;;;;;;5018307;28;20071;-73
2022/05/29 06:56:31;;;;;;;8.02;3.85;;;22.00;99.90;;;;;;5021590;28;20046;-72
2022/05/29 06:58:59;;;;;;;9.70;3.50;;;22.00;99.90;;;;;;5021951;28;20479;-74
2022/05/29 07:06:59;;;;;;;9.57;3.85;;;22.40;99.90;;;;;;5019280;28;20489;-72
2022/05/29 07:09:39;;;;;;;12.27;3.35;;;22.50;99.90;;;;;;5010875;28;20034;-73
2022/05/29 07:12:22;;;;;;;8.15;3.65;;;22.50;99.90;;;;;;5017782;28;20037;-72
2022/05/29 07:14:57;;;;;;;10.32;4.05;;;22.30;99.90;;;;;;5019780;28;20086;-73
2022/05/29 07:17:23;;;;;;;12.80;4.03;;;22.40;99.90;;;;;;5019573;28;20087;-72
2022/05/29 07:19:49;;;;;;;13.50;3.78;;;22.50;99.90;;;;;;5024635;28;20041;-74
2022/05/29 07:22:15;;;;;;;8.55;3.17;;;22.50;99.90;;;;;;5020690;28;20049;-73
2022/05/29 07:24:43;;;;;;;9.30;2.33;;;22.80;99.90;;;;;;5024078;28;20057;-74
2022/05/29 07:27:10;;;;;;;9.68;2.63;;;22.80;99.90;;;;;;5027225;28;20619;-74
2022/05/29 07:29:36;;;;;;;9.73;2.38;;;22.70;99.90;;;;;;5019442;28;20052;-73
2022/05/29 07:32:03;;;;;;;7.82;2.13;;;22.70;99.90;;;;;;5021429;28;20049;-73
2022/05/29 07:34:30;;;;;;;7.55;2.45;;;22.90;99.90;;;;;;5002355;28;20099;-73
2022/05/29 07:37:09;;;;;;;9.85;2.03;;;22.90;99.90;;;;;;5020360;28;20029;-73
2022/05/29 07:39:43;;;;;;;10.82;2.20;;;22.90;99.90;;;;;;5052677;28;20030;-73
2022/05/29 07:44:54;;;;;;;10.68;2.33;;;23.10;99.90;;;;;;5019395;28;20121;-74
2022/05/29 07:47:23;;;;;;;6.70;1.70;;;23.20;99.90;;;;;;5021808;28;20041;-73
2022/05/29 07:49:49;;;;;;;9.02;2.70;;;23.30;99.90;;;;;;5018772;28;20038;-73
2022/05/29 07:52:15;;;;;;;9.50;2.60;;;23.40;99.90;;;;;;5034432;28;20042;-72
2022/05/29 07:54:41;;;;;;;6.53;1.67;;;23.70;99.90;;;;;;5021302;28;20587;-73
2022/05/29 07:57:07;;;;;;;6.45;1.60;;;23.60;99.90;;;;;;5013910;28;20056;-74
2022/05/29 07:59:33;;;;;;;6.43;1.90;;;23.60;99.90;;;;;;5018850;28;20033;-74
2022/05/29 08:01:59;;;;;;;7.85;2.10;;;23.70;99.90;;;;;;5016081;28;20029;-73
2022/05/29 08:04:27;;;;;;;6.72;1.80;;;23.40;99.90;;;;;;5035222;28;20049;-74
2022/05/29 08:06:53;;;;;;;11.77;2.35;;;23.30;99.90;;;;;;5017680;28;20125;-74
2022/05/29 08:09:19;;;;;;;9.48;2.00;;;23.20;99.90;;;;;;5019802;28;20116;-73
2022/05/29 08:11:45;;;;;;;7.00;2.13;;;23.40;99.90;;;;;;5022107;28;20038;-74
2022/05/29 08:14:11;;;;;;;9.23;1.90;;;23.50;99.90;;;;;;5016744;28;20608;-72
2022/05/29 08:16:39;;;;;;;7.93;1.92;;;23.40;99.90;;;;;;5022860;28;20033;-73
2022/05/29 08:19:07;;;;;;;7.55;2.00;;;23.20;99.90;;;;;;5023801;28;20389;-74
2022/05/29 08:21:33;;;;;;;5.30;2.10;;;23.30;99.90;;;;;;5019464;28;20034;-73
2022/05/29 08:32:15;;;;;;;7.53;2.30;;;22.90;99.90;;;;;;5015789;28;20138;-73
2022/05/29 08:34:43;;;;;;;7.57;2.63;;;23.50;99.90;;;;;;5033660;28;20384;-73
2022/05/29 08:37:10;;;;;;;5.20;1.45;;;23.40;99.90;;;;;;5033252;28;20503;-73
2022/05/29 08:39:36;;;;;;;9.57;1.73;;;23.30;99.90;;;;;;5036619;28;20040;-73
2022/05/29 08:42:02;;;;;;;5.53;1.52;;;23.00;99.90;;;;;;5021538;28;20048;-72
2022/05/29 08:44:51;;;;;;;6.60;1.77;;;22.90;99.90;;;;;;5027196;28;20049;-75
2022/05/29 08:47:26;;;;;;;7.55;1.80;;;22.90;99.90;;;;;;5014767;28;20485;-73
2022/05/29 08:49:52;;;;;;;8.25;1.50;;;23.10;99.90;;;;;;5021616;28;20045;-73
2022/05/29 08:52:53;;;;;;;10.50;1.70;;;23.50;99.90;;;;;;5039448;28;20520;-72
2022/05/29 08:55:37;;;;;;;5.20;1.40;;;23.60;99.90;;;;;;5021533;28;20501;-72
2022/05/29 08:58:25;;;;;;;7.60;1.63;;;23.50;99.90;;;;;;5022046;28;20568;-73
2022/05/29 09:00:59;;;;;;;5.82;1.52;;;23.50;99.90;;;;;;5035350;28;20029;-74
2022/05/29 09:03:35;;;;;;;6.47;1.52;;;23.50;99.90;;;;;;5020568;28;20045;-73
2022/05/29 09:06:11;;;;;;;5.05;1.60;;;23.40;99.90;;;;;;5032535;28;20038;-72
2022/05/29 09:08:48;;;;;;;7.88;2.40;;;23.50;99.90;;;;;;5017926;28;20033;-72
2022/05/29 09:11:41;;;;;;;8.05;1.67;;;23.30;99.90;;;;;;5041827;28;20792;-73
2022/05/29 09:14:33;;;;;;;6.60;1.45;;;23.70;99.90;;;;;;5032507;28;20150;-71
2022/05/29 09:17:07;;;;;;;4.32;1.38;;;23.70;99.90;;;;;;5039380;28;20038;-73
2022/05/29 09:19:43;;;;;;;7.18;1.48;;;23.70;99.90;;;;;;5022566;28;20029;-73
2022/05/29 09:22:14;;;;;;;11.27;2.13;;;23.80;99.90;;;;;;5021336;28;20069;-72
2022/05/29 09:24:48;;;;;;;7.88;1.70;;;24.00;99.90;;;;;;5022325;28;20776;-73
2022/05/29 09:27:16;;;;;;;11.80;4.50;;;24.10;99.90;;;;;;5035313;28;20068;-73
2022/05/29 09:29:42;;;;;;;5.55;1.90;;;24.20;99.90;;;;;;5039164;28;20037;-73
2022/05/29 09:32:18;;;;;;;7.00;1.85;;;24.30;99.90;;;;;;5033614;28;20037;-73
2022/05/29 09:35:09;;;;;;;7.72;1.63;;;24.50;99.90;;;;;;5023432;28;20474;-73
2022/05/29 09:37:50;;;;;;;7.95;1.88;;;24.40;99.90;;;;;;5018577;28;20030;-73
2022/05/29 09:40:33;;;;;;;5.63;1.58;;;24.50;99.90;;;;;;5019733;28;20532;-73
2022/05/29 09:43:17;;;;;;;7.90;1.70;;;24.40;99.90;;;;;;5024962;28;20038;-74
2022/05/29 09:45:43;;;;;;;5.35;1.58;;;24.30;99.90;;;;;;5023768;28;20049;-72
2022/05/29 09:51:28;;;;;;;7.38;1.92;;;24.60;99.90;;;;;;5019763;28;20068;-74
2022/05/29 09:53:58;;;;;;;6.85;1.50;;;24.60;99.90;;;;;;5027267;28;20033;-73
2022/05/29 09:56:31;;;;;;;5.88;1.42;;;24.40;99.90;;;;;;5023225;28;20033;-75
2022/05/29 09:59:15;;;;;;;7.53;1.90;;;24.60;99.90;;;;;;5022355;28;20026;-74
2022/05/29 10:01:45;;;;;;;7.43;1.75;;;24.30;99.90;;;;;;5055617;28;20125;-73
2022/05/29 10:04:15;;;;;;;9.18;1.60;;;24.50;99.90;;;;;;5021576;28;20029;-73
2022/05/29 10:06:46;;;;;;;4.72;1.77;;;24.40;99.90;;;;;;5010303;28;20117;-73
2022/05/29 10:09:21;;;;;;;9.02;1.63;;;24.30;99.90;;;;;;5009214;28;20461;-73
2022/05/29 10:11:52;;;;;;;4.90;1.48;;;24.40;99.90;;;;;;5036544;28;20121;-73
2022/05/29 10:14:36;;;;;;;7.22;2.05;;;24.30;99.90;;;;;;5037684;28;20140;-73
2022/05/29 10:17:16;;;;;;;5.82;1.70;;;24.70;99.90;;;;;;5025850;28;20041;-74
2022/05/29 10:19:44;;;;;;;6.68;1.90;;;24.30;99.90;;;;;;5020462;28;20042;-73
2022/05/29 10:22:16;;;;;;;5.82;2.15;;;24.80;99.90;;;;;;5018044;28;20081;-73
2022/05/29 10:24:43;;;;;;;5.85;2.55;;;24.70;99.90;;;;;;5022067;28;20038;-72
2022/05/29 10:27:28;;;;;;;7.40;2.33;;;25.00;99.90;;;;;;5020855;28;20048;-74
2022/05/29 10:30:02;;;;;;;9.10;2.60;;;25.30;99.90;;;;;;5056481;28;20103;-74
2022/05/29 10:32:32;;;;;;;8.63;2.70;;;25.40;99.90;;;;;;5014912;28;20477;-74
2022/05/29 10:35:32;;;;;;;8.57;3.13;;;25.00;99.90;;;;;;5029023;28;20143;-74
2022/05/29 10:38:17;;;;;;;10.02;2.97;;;24.80;99.90;;;;;;4974616;28;20047;-74
2022/05/29 10:40:46;;;;;;;8.25;3.17;;;25.00;99.90;;;;;;4999226;28;20039;-72
2022/05/29 10:43:32;;;;;;;9.82;3.25;;;25.20;99.90;;;;;;4997310;28;20088;-73
2022/05/29 10:46:05;;;;;;;8.52;3.55;;;25.40;99.90;;;;;;5000119;28;20090;-74
2022/05/29 10:48:55;;;;;;;6.50;1.92;;;25.30;99.90;;;;;;5007818;28;20037;-73
2022/05/29 10:51:25;;;;;;;7.05;2.15;;;25.40;99.90;;;;;;5051380;28;20061;-74
2022/05/29 10:54:25;;;;;;;9.38;2.40;;;25.70;99.90;;;;;;5036409;28;20046;-73
2022/05/29 10:57:11;;;;;;;5.20;1.98;;;26.00;99.90;;;;;;5038483;28;20057;-73
2022/05/29 11:00:06;;;;;;;5.22;2.20;;;26.10;99.90;;;;;;5029879;28;20041;-74
2022/05/29 11:05:54;;;;;;;11.25;2.10;;;25.70;99.90;;;;;;5018676;28;20141;-74
2022/05/29 11:08:42;;;;;;;7.95;2.65;;;25.80;99.90;;;;;;5035782;28;20047;-73
2022/05/29 11:11:26;;;;;;;4.93;1.98;;;25.80;99.90;;;;;;5038350;28;20040;-73
2022/05/29 11:14:12;;;;;;;7.47;2.40;;;26.00;99.90;;;;;;5038495;28;20053;-73
2022/05/29 11:16:41;;;;;;;9.75;2.47;;;25.80;99.90;;;;;;5019501;28;20029;-74
2022/05/29 11:19:07;;;;;;;9.20;2.70;;;25.80;99.90;;;;;;5036728;28;20041;-75
2022/05/29 11:21:52;;;;;;;8.32;2.40;;;25.70;99.90;;;;;;5033367;28;20426;-74
2022/05/29 11:24:36;;;;;;;5.75;2.72;;;26.00;99.90;;;;;;5000163;28;20460;-75
2022/05/29 11:27:13;;;;;;;7.13;2.70;;;26.20;99.90;;;;;;5001300;28;20080;-74
2022/05/29 11:30:28;;;;;;;8.70;2.50;;;26.20;99.90;;;;;;5045807;28;20060;-74
2022/05/29 11:33:18;;;;;;;7.97;2.95;;;26.50;99.90;;;;;;5015841;28;20068;-75
2022/05/29 11:36:43;;;;;;;6.28;2.20;;;26.50;99.90;;;;;;4993492;28;20050;-74
2022/05/29 11:39:21;;;;;;;8.45;2.67;;;25.80;99.90;;;;;;5004956;28;20072;-74
2022/05/29 11:41:52;;;;;;;10.40;2.22;;;26.50;99.90;;;;;;5004817;28;20046;-74
2022/05/29 11:44:40;;;;;;;9.23;2.50;;;26.60;99.90;;;;;;5056497;28;20040;-75
2022/05/29 11:53:39;;;;;;;11.20;2.53;;;27.00;98.20;;;;;;5019195;28;20102;-75
2022/05/29 11:56:11;;;;;;;7.25;2.63;;;26.50;98.20;;;;;;5022942;28;20094;-74
2022/05/29 11:59:07;;;;;;;9.00;2.58;;;26.80;98.00;;;;;;5037203;28;20037;-75
2022/05/29 12:02:03;;;;;;;9.18;2.30;;;26.10;98.20;;;;;;5021518;28;20037;-74
2022/05/29 12:04:46;;;;;;;6.57;2.25;;;26.40;98.40;;;;;;5036269;28;20694;-73
2022/05/29 12:07:44;;;;;;;8.65;2.50;;;26.90;97.70;;;;;;5015483;28;21254;-75
2022/05/29 12:10:22;;;;;;;10.00;2.38;;;27.60;97.20;;;;;;5002605;28;20052;-75
2022/05/29 12:12:59;;;;;;;11.27;3.00;;;27.60;96.30;;;;;;5034492;28;20053;-74
2022/05/29 12:15:25;;;;;;;10.45;2.78;;;26.80;96.60;;;;;;5011746;28;20065;-72
2022/05/29 12:18:12;;;;;;;9.63;2.70;;;27.20;96.80;;;;;;5034142;28;20147;-74
2022/05/29 12:20:49;;;;;;;9.18;2.70;;;27.80;96.00;;;;;;5043608;28;20409;-75
2022/05/29 12:23:22;;;;;;;9.13;2.53;;;27.80;95.80;;;;;;5008802;28;20088;-73
2022/05/29 12:25:55;;;;;;;7.95;2.55;;;27.00;95.90;;;;;;5013704;28;20512;-73
2022/05/29 12:29:18;;;;;;;5.85;2.22;;;26.70;96.20;;;;;;5009830;28;20073;-72
2022/05/29 12:31:54;;;;;;;11.95;2.42;;;27.30;95.80;;;;;;4990276;28;20116;-72
2022/05/29 12:34:28;;;;;;;8.43;2.60;;;27.60;95.90;;;;;;5010947;28;20075;-71
2022/05/29 12:37:10;;;;;;;7.55;2.38;;;27.70;95.20;;;;;;5011629;28;20038;-73
2022/05/29 12:40:23;;;;;;;7.38;2.45;;;27.90;95.40;;;;;;5011130;28;20638;-79
2022/05/29 12:43:07;;;;;;;;;;;28.90;94.70;;;;;;5001768;28;20034;-71
2022/05/29 12:46:02;;;;;;;8.77;2.60;;;28.90;94.50;;;;;;5019821;28;19913;-73
2022/05/29 12:49:08;;;;;;;7.40;2.25;;;28.50;94.20;;;;;;5009652;28;20048;-71
2022/05/29 12:52:29;;;;;;;10.68;3.15;;;27.20;95.20;;;;;;5012268;28;20070;-71
2022/05/29 12:55:15;;;;;;;7.35;2.53;;;27.30;95.30;;;;;;4994907;28;20196;-73
2022/05/29 12:57:50;;;;;;;9.98;2.58;;;27.40;95.00;;;;;;5011139;28;20050;-72
2022/05/29 13:00:41;;;;;;;7.57;2.90;;;27.70;95.00;;;;;;5023767;28;20038;-70
2022/05/29 13:03:41;;;;;;;8.70;2.70;;;27.60;94.80;;;;;;5022195;28;20103;-70
2022/05/29 13:06:26;;;;;;;8.95;2.00;;;27.30;95.00;;;;;;5014687;28;20413;-70
2022/05/29 13:09:20;;;;;;;7.18;2.60;;;27.70;94.90;;;;;;5015597;28;20040;-72
2022/05/29 13:11:52;;;;;;;7.97;2.80;;;28.10;94.70;;;;;;5034821;28;20052;-71
2022/05/29 13:14:21;;;;;;;8.75;2.75;;;28.40;93.70;;;;;;5020824;28;20033;-72
2022/05/29 13:16:59;;;;;;;5.05;2.13;;;28.00;94.00;;;;;;5037521;28;20037;-76
2022/05/29 13:19:47;;;;;;;8.30;2.40;;;27.60;94.30;;;;;;5039358;28;20123;-77
2022/05/29 13:22:14;;;;;;;5.65;2.10;;;28.60;93.90;;;;;;5027484;28;20046;-78
2022/05/29 13:24:46;;;;;;;6.47;2.10;;;28.80;93.60;;;;;;5042380;28;20098;-77
2022/05/29 13:27:12;;;;;;;9.57;2.67;;;29.30;93.20;;;;;;5030762;28;20033;-77
2022/05/29 13:29:49;;;;;;;9.02;2.25;;;29.10;93.00;;;;;;5019752;28;20120;-76
2022/05/29 13:32:24;;;;;;;6.40;2.20;;;29.00;93.00;;;;;;5028803;28;20389;-75
2022/05/29 13:35:16;;;;;;;4.85;2.03;;;29.00;92.90;;;;;;5027053;28;20428;-76
2022/05/29 13:37:49;;;;;;;9.18;2.53;;;28.10;93.10;;;;;;5030519;28;20037;-78
2022/05/29 13:40:22;;;;;;;6.63;2.08;;;28.70;93.40;;;;;;5021316;28;20033;-76
2022/05/29 13:42:55;;;;;;;8.55;2.58;;;28.70;93.10;;;;;;5040692;28;20038;-77
2022/05/29 13:45:28;;;;;;;8.82;1.95;;;28.10;93.20;;;;;;5023836;28;20098;-76
2022/05/29 13:48:17;;;;;;;10.60;2.28;;;27.90;93.70;;;;;;5023211;28;20041;-77
2022/05/29 13:51:03;;;;;;;7.57;2.30;;;28.00;93.70;;;;;;5025347;28;20373;-77
2022/05/29 13:54:05;;;;;;;5.00;2.40;;;28.80;92.90;;;;;;5034206;28;20433;-75
2022/05/29 13:56:50;;;;;;;6.35;2.50;;;28.90;93.00;;;;;;5006752;28;20041;-77